Time;durP1;ratioP1;P1;durP2;ratioP2;P2;SDS_P1;SDS_P2;PMS_P1;PMS_P2;Temp;Humidity;BMP_temperature;BMP_pressure;BME280_temperature;BME280_humidity;BME280_pressure;Samples;Min_cycle;Max_cycle;Signal;HPM_P1;HPM_P2
2022/05/12 00:01:27;;;;;;;6.72;2.17;;;;;;;12.63;74.68;101280.09;4997723;28;20033;-63
2022/05/12 00:03:52;;;;;;;8.27;2.33;;;;;;;12.77;74.17;101279.75;4989294;28;20350;-62
2022/05/12 00:06:17;;;;;;;8.10;2.30;;;;;;;12.73;74.50;101296.59;5006353;28;20095;-62
2022/05/12 00:08:43;;;;;;;8.65;2.60;;;;;;;12.72;74.31;101284.50;5006500;28;20032;-62
2022/05/12 00:11:08;;;;;;;7.85;2.45;;;;;;;12.65;74.93;101293.78;5006391;28;20058;-62
2022/05/12 00:13:34;;;;;;;7.47;2.40;;;;;;;12.72;75.36;101294.91;5006639;28;20034;-62
2022/05/12 00:16:00;;;;;;;9.52;2.63;;;;;;;12.62;75.03;101296.66;5006234;28;20033;-62
2022/05/12 00:18:26;;;;;;;8.55;2.88;;;;;;;12.52;75.49;101308.78;4999229;28;20042;-63
2022/05/12 00:20:52;;;;;;;9.10;2.95;;;;;;;12.56;74.51;101298.91;4992027;28;20030;-62
2022/05/12 00:23:29;;;;;;;8.25;2.50;;;;;;;12.48;74.90;101307.38;5000573;28;20030;-62
2022/05/12 00:25:55;;;;;;;9.73;2.65;;;;;;;12.54;74.08;101306.84;5006601;28;20037;-62
2022/05/12 00:28:24;;;;;;;7.53;2.58;;;;;;;12.39;75.31;101303.75;4994165;28;20034;-62
2022/05/12 00:30:52;;;;;;;9.52;2.55;;;;;;;12.36;74.95;101313.56;4991611;28;20041;-62
2022/05/12 00:33:18;;;;;;;8.67;2.63;;;;;;;12.21;74.65;101326.88;5005852;28;20054;-63
2022/05/12 00:35:44;;;;;;;7.75;2.33;;;;;;;12.17;74.93;101320.25;5003540;28;20052;-62
2022/05/12 00:38:11;;;;;;;7.15;2.60;;;;;;;12.19;75.05;101328.75;4997713;28;20030;-62
2022/05/12 00:40:39;;;;;;;9.82;3.20;;;;;;;12.08;75.47;101336.59;5006249;28;20100;-63
2022/05/12 00:43:07;;;;;;;6.97;2.30;;;;;;;12.09;74.79;101327.84;5006485;28;20026;-62
2022/05/12 00:45:37;;;;;;;;;;;;;;;12.34;73.46;101333.69;5006891;28;20029;-62
2022/05/12 00:48:03;;;;;;;8.13;2.60;;;;;;;12.10;74.75;101336.47;5006258;28;20047;-61
2022/05/12 00:50:36;;;;;;;9.85;3.35;;;;;;;11.97;75.58;101334.00;5007771;28;20032;-66
2022/05/12 00:53:04;;;;;;;9.48;2.88;;;;;;;11.98;75.35;101338.25;5004621;28;20499;-62
2022/05/12 00:55:33;;;;;;;9.38;2.97;;;;;;;11.95;75.99;101322.94;4990335;28;20462;-63
2022/05/12 00:58:00;;;;;;;8.80;2.92;;;;;;;12.08;75.64;101331.38;4990589;28;20093;-62
2022/05/12 01:00:26;;;;;;;11.15;3.13;;;;;;;12.08;75.38;101339.19;4991212;28;20030;-62
2022/05/12 01:02:55;;;;;;;8.45;2.80;;;;;;;11.92;75.58;101341.34;5009826;28;20026;-64
2022/05/12 01:05:23;;;;;;;10.30;3.40;;;;;;;11.89;76.41;101349.41;5009423;28;20026;-62
2022/05/12 01:07:51;;;;;;;9.95;3.00;;;;;;;12.07;75.28;101345.34;5009272;28;20389;-62
2022/05/12 01:10:18;;;;;;;9.75;2.95;;;;;;;11.89;76.56;101346.81;5008745;28;20496;-66
2022/05/12 01:12:48;;;;;;;10.52;3.30;;;;;;;11.84;76.64;101344.56;5009548;28;20132;-65
2022/05/12 01:15:14;;;;;;;6.80;2.83;;;;;;;11.92;76.45;101357.78;5009444;28;20700;-62
2022/05/12 01:17:39;;;;;;;9.68;3.00;;;;;;;11.87;75.93;101348.69;5009200;28;20030;-63
2022/05/12 01:20:05;;;;;;;9.65;3.50;;;;;;;11.72;76.85;101344.66;5009584;28;20445;-62
2022/05/12 01:22:53;;;;;;;8.75;3.08;;;;;;;11.95;75.93;101356.72;5008523;28;20132;-62
2022/05/12 01:25:23;;;;;;;7.35;2.80;;;;;;;11.82;76.86;101362.06;5007723;28;20061;-62
2022/05/12 01:27:49;;;;;;;8.00;2.75;;;;;;;11.85;76.57;101366.19;4999771;28;20026;-62
2022/05/12 01:30:18;;;;;;;9.50;2.90;;;;;;;11.65;76.87;101368.53;4993763;28;20018;-62
2022/05/12 01:32:44;;;;;;;5.55;2.30;;;;;;;11.63;76.87;101365.22;5009779;28;20077;-63
2022/05/12 01:35:11;;;;;;;8.10;2.42;;;;;;;11.63;76.22;101378.19;5009118;28;20381;-62
2022/05/12 01:37:43;;;;;;;8.20;2.30;;;;;;;11.74;76.28;101386.94;5009060;28;20072;-62
2022/05/12 01:40:11;;;;;;;6.45;2.38;;;;;;;11.55;77.38;101375.38;5008674;28;20058;-62
2022/05/12 01:42:36;;;;;;;8.87;2.63;;;;;;;11.51;77.21;101379.16;5009394;28;20037;-62
2022/05/12 01:45:03;;;;;;;7.40;2.50;;;;;;;11.51;77.07;101384.34;5009490;28;20587;-62
2022/05/12 01:47:29;;;;;;;8.32;2.35;;;;;;;11.39;78.18;101380.91;5008900;28;20454;-62
2022/05/12 01:49:55;;;;;;;7.68;2.55;;;;;;;11.49;77.44;101383.66;5009067;28;20030;-62
2022/05/12 01:52:20;;;;;;;8.93;2.70;;;;;;;11.43;77.38;101386.72;5008085;28;20177;-64
2022/05/12 01:54:46;;;;;;;7.20;2.63;;;;;;;11.51;77.60;101384.34;4992946;28;20028;-62
2022/05/12 01:57:11;;;;;;;6.93;2.58;;;;;;;11.38;77.64;101394.84;5008299;28;20026;-62
2022/05/12 01:59:37;;;;;;;6.57;2.95;;;;;;;11.45;77.45;101397.81;4991388;28;20612;-62
2022/05/12 02:02:03;;;;;;;7.60;3.10;;;;;;;11.47;77.87;101400.28;5008140;28;20040;-62
2022/05/12 02:04:28;;;;;;;7.18;3.78;;;;;;;11.34;77.84;101395.19;5008662;28;20030;-62
2022/05/12 02:06:54;;;;;;;7.13;3.28;;;;;;;11.39;77.83;101411.25;5008594;28;20044;-63
2022/05/12 02:09:19;;;;;;;9.00;3.60;;;;;;;11.38;77.46;101418.22;5007733;28;20022;-62
2022/05/12 02:11:44;;;;;;;7.32;3.72;;;;;;;11.31;78.02;101414.44;5008549;28;20091;-62
2022/05/12 02:14:10;;;;;;;8.23;3.40;;;;;;;11.22;77.87;101411.69;4990860;28;20029;-62
2022/05/12 02:16:36;;;;;;;8.25;3.53;;;;;;;11.16;78.54;101428.56;5000475;28;20061;-62
2022/05/12 02:19:04;;;;;;;7.35;3.83;;;;;;;11.21;78.43;101428.22;4989118;28;20030;-63
2022/05/12 02:21:30;;;;;;;9.52;3.90;;;;;;;11.06;78.33;101415.44;4987838;28;20030;-64
2022/05/12 02:23:55;;;;;;;8.65;3.60;;;;;;;11.12;78.54;101425.34;4989202;28;20429;-62
2022/05/12 02:26:21;;;;;;;7.68;3.42;;;;;;;11.07;78.36;101422.31;5007347;28;20477;-63
2022/05/12 02:28:47;;;;;;;6.13;3.40;;;;;;;10.93;78.66;101425.06;5007906;28;20026;-62
2022/05/12 02:31:12;;;;;;;7.63;3.45;;;;;;;10.94;78.90;101421.53;5007962;28;20373;-65
2022/05/12 02:33:38;;;;;;;7.53;3.55;;;;;;;11.05;78.23;101433.72;5008073;28;20141;-62
2022/05/12 02:36:04;;;;;;;8.75;3.55;;;;;;;10.97;78.55;101447.28;4990236;28;20454;-63
2022/05/12 02:38:29;;;;;;;9.20;3.75;;;;;;;10.81;79.31;101451.91;4987966;28;20663;-63
2022/05/12 02:40:55;;;;;;;7.68;3.50;;;;;;;10.80;79.27;101442.47;4977486;28;20025;-62
2022/05/12 02:43:23;;;;;;;7.90;3.10;;;;;;;10.81;79.73;101457.09;5007502;28;20037;-63
2022/05/12 02:46:00;;;;;;;7.38;3.45;;;;;;;10.75;79.84;101458.38;4990449;28;20034;-62
2022/05/12 02:48:33;;;;;;;6.22;3.10;;;;;;;10.87;78.26;101464.44;5007369;28;20413;-62
2022/05/12 02:50:58;;;;;;;7.30;3.15;;;;;;;10.84;78.73;101462.09;5007510;28;20026;-62
2022/05/12 02:53:25;;;;;;;7.63;3.03;;;;;;;10.82;78.48;101458.75;5007143;28;20044;-63
2022/05/12 02:55:50;;;;;;;6.55;2.78;;;;;;;10.81;78.53;101462.28;5007867;28;20053;-64
2022/05/12 02:58:16;;;;;;;7.53;3.05;;;;;;;10.76;79.48;101464.38;5007175;28;20462;-62
2022/05/12 03:00:42;;;;;;;7.32;3.05;;;;;;;10.73;78.79;101469.81;5007798;28;20500;-62
2022/05/12 03:03:07;;;;;;;6.60;2.95;;;;;;;10.63;79.71;101470.47;5006929;28;20026;-64
2022/05/12 03:05:34;;;;;;;8.32;3.05;;;;;;;10.62;79.94;101468.00;5007720;28;20030;-61
2022/05/12 03:07:59;;;;;;;6.93;3.00;;;;;;;10.64;79.13;101472.13;5007624;28;20017;-62
2022/05/12 03:10:25;;;;;;;6.85;2.95;;;;;;;10.64;79.69;101468.69;5007424;28;20076;-61
2022/05/12 03:12:51;;;;;;;5.97;2.80;;;;;;;10.71;79.14;101482.06;5007172;28;20049;-61
2022/05/12 03:15:17;;;;;;;6.63;3.45;;;;;;;10.69;79.33;101463.19;5007362;28;20458;-62
2022/05/12 03:17:44;;;;;;;5.85;3.08;;;;;;;10.72;79.21;101478.50;5006608;28;20029;-62
2022/05/12 03:20:15;;;;;;;6.35;3.17;;;;;;;10.59;79.88;101475.97;5006820;28;20488;-62
2022/05/12 03:22:41;;;;;;;6.50;3.22;;;;;;;10.60;79.73;101486.22;5007347;28;20061;-64
2022/05/12 03:25:10;;;;;;;6.35;3.33;;;;;;;10.51;79.65;101484.31;5007231;28;20056;-62
2022/05/12 03:27:35;;;;;;;7.35;3.17;;;;;;;10.47;79.87;101490.63;4990182;28;20032;-61
2022/05/12 03:30:02;;;;;;;8.10;3.40;;;;;;;10.50;79.62;101487.84;5007228;28;20105;-62
2022/05/12 03:32:27;;;;;;;6.80;3.40;;;;;;;10.50;80.03;101495.63;5005585;28;20034;-62
2022/05/12 03:34:52;;;;;;;6.57;3.70;;;;;;;10.53;78.93;101490.22;5007170;28;20079;-61
2022/05/12 03:37:18;;;;;;;7.88;3.45;;;;;;;10.53;79.14;101495.41;5006620;28;20026;-61
2022/05/12 03:39:44;;;;;;;7.32;3.53;;;;;;;10.40;79.55;101497.19;4989249;28;20025;-62
2022/05/12 03:42:15;;;;;;;8.10;3.28;;;;;;;10.29;79.92;101508.31;5006753;28;20108;-62
2022/05/12 03:44:49;;;;;;;7.35;3.75;;;;;;;10.42;80.15;101504.88;5007243;28;20420;-62
2022/05/12 03:47:19;;;;;;;6.68;3.17;;;;;;;10.30;80.29;101507.38;5002873;28;20025;-62
2022/05/12 03:49:44;;;;;;;7.13;3.33;;;;;;;10.32;79.61;101512.44;5005305;28;20064;-62
2022/05/12 03:52:09;;;;;;;8.30;3.50;;;;;;;10.24;79.97;101510.41;5005406;28;20434;-62
2022/05/12 03:54:35;;;;;;;8.43;3.40;;;;;;;10.32;79.85;101522.81;5000500;28;20369;-62
2022/05/12 03:57:02;;;;;;;8.70;3.92;;;;;;;10.15;80.65;101520.53;5005762;28;20036;-62
2022/05/12 03:59:28;;;;;;;7.70;3.45;;;;;;;10.25;79.99;101512.06;5006344;28;20032;-64
2022/05/12 04:01:53;;;;;;;9.73;3.40;;;;;;;10.23;80.71;101518.25;5004799;28;20112;-62
2022/05/12 04:04:19;;;;;;;9.07;3.92;;;;;;;10.19;80.55;101521.97;5002572;28;20518;-62
2022/05/12 04:06:44;;;;;;;8.43;3.50;;;;;;;10.29;80.31;101530.81;5004946;28;20528;-62
2022/05/12 04:09:10;;;;;;;8.88;3.72;;;;;;;10.25;80.80;101544.94;5002596;28;20053;-64
2022/05/12 04:11:35;;;;;;;9.13;3.75;;;;;;;10.28;80.95;101534.38;4999248;28;20057;-62
2022/05/12 04:14:00;;;;;;;10.77;3.97;;;;;;;10.17;81.37;101544.59;4997848;28;20022;-62
2022/05/12 04:16:26;;;;;;;8.80;3.80;;;;;;;10.20;80.14;101534.84;4999721;28;20029;-61
2022/05/12 04:18:51;;;;;;;11.85;4.10;;;;;;;10.22;81.23;101539.94;5002042;28;20035;-63
2022/05/12 04:21:17;;;;;;;9.38;4.07;;;;;;;10.22;81.16;101532.16;5004926;28;20049;-62
2022/05/12 04:23:43;;;;;;;10.15;4.30;;;;;;;10.20;81.34;101544.38;5006186;28;20120;-63
2022/05/12 04:26:09;;;;;;;11.00;4.15;;;;;;;10.26;80.93;101551.75;4993462;28;20485;-63
2022/05/12 04:28:35;;;;;;;9.23;4.20;;;;;;;10.17;81.06;101545.44;4989310;28;20018;-62
2022/05/12 04:31:01;;;;;;;12.02;4.65;;;;;;;10.13;81.50;101548.34;4977802;28;20030;-62
2022/05/12 04:36:10;;;;;;;12.05;5.03;;;;;;;10.21;81.31;101561.63;5006453;28;20148;-62
2022/05/12 04:38:35;;;;;;;11.75;4.72;;;;;;;10.19;81.31;101568.66;4992032;28;20037;-62
2022/05/12 04:41:01;;;;;;;11.63;5.13;;;;;;;10.23;81.05;101570.09;5004354;28;20447;-61
2022/05/12 04:43:27;;;;;;;13.10;4.90;;;;;;;10.25;80.61;101578.63;4990334;28;20034;-62
2022/05/12 04:45:53;;;;;;;14.98;5.88;;;;;;;10.15;81.68;101574.97;4990395;28;20371;-62
2022/05/12 04:48:18;;;;;;;11.05;5.50;;;;;;;10.12;81.64;101563.06;4990178;28;20030;-64
2022/05/12 04:50:44;;;;;;;14.23;5.57;;;;;;;10.26;82.44;101575.94;5009664;28;20034;-63
2022/05/12 04:53:11;;;;;;;11.95;5.90;;;;;;;10.25;82.48;101578.63;5008290;28;20076;-62
2022/05/12 04:55:37;;;;;;;14.98;6.10;;;;;;;10.34;82.15;101578.00;5005917;28;20350;-62
2022/05/12 04:58:03;;;;;;;12.80;6.03;;;;;;;10.33;82.53;101581.53;4991780;28;20493;-62
2022/05/12 05:00:37;;;;;;;12.85;5.93;;;;;;;10.42;82.63;101587.84;5009601;28;20536;-62
2022/05/12 05:03:04;;;;;;;12.73;6.25;;;;;;;10.30;83.01;101592.94;5009882;28;20021;-61
2022/05/12 05:05:30;;;;;;;14.13;6.35;;;;;;;10.40;82.92;101587.97;5005358;28;20018;-62
2022/05/12 05:07:56;;;;;;;15.57;6.75;;;;;;;10.43;82.53;101598.13;5009368;28;20036;-64
2022/05/12 05:10:21;;;;;;;14.85;6.60;;;;;;;10.50;82.79;101598.53;5008433;28;20036;-62
2022/05/12 05:12:47;;;;;;;13.73;6.97;;;;;;;10.50;83.09;101608.91;5006637;28;20064;-64
2022/05/12 05:15:15;;;;;;;15.70;7.45;;;;;;;10.56;83.08;101603.31;5007790;28;20053;-62
2022/05/12 05:17:41;;;;;;;16.30;7.45;;;;;;;10.59;83.43;101603.91;5009542;28;20022;-62
2022/05/12 05:20:10;;;;;;;15.30;7.40;;;;;;;10.63;83.50;101620.09;5008779;28;20030;-62
2022/05/12 05:22:37;;;;;;;16.02;7.47;;;;;;;10.70;83.13;101612.72;5009490;28;20050;-62
2022/05/12 05:25:03;;;;;;;16.73;7.38;;;;;;;10.77;83.19;101624.31;5007004;28;20060;-62
2022/05/12 05:27:29;;;;;;;17.00;8.25;;;;;;;10.80;82.58;101624.13;5001505;28;20030;-63
2022/05/12 05:29:54;;;;;;;18.17;8.43;;;;;;;10.81;83.82;101628.38;4989684;28;20053;-63
2022/05/12 05:32:20;;;;;;;15.32;8.25;;;;;;;10.87;83.25;101625.34;4989641;28;20529;-63
2022/05/12 05:34:46;;;;;;;16.13;8.82;;;;;;;10.88;83.35;101629.59;5007191;28;20038;-62
2022/05/12 05:37:11;;;;;;;19.20;8.98;;;;;;;10.98;83.14;101634.97;5006681;28;20029;-66
2022/05/12 05:39:37;;;;;;;17.77;9.77;;;;;;;10.98;83.82;101643.59;5007822;28;20470;-61
2022/05/12 05:42:08;;;;;;;19.15;10.38;;;;;;;11.10;83.46;101645.31;5009618;28;20026;-61
2022/05/12 05:44:33;;;;;;;18.83;10.20;;;;;;;11.10;84.08;101650.50;5009286;28;20578;-61
2022/05/12 05:47:00;;;;;;;17.90;10.68;;;;;;;11.21;83.80;101661.91;5009353;28;20022;-62
2022/05/12 05:49:27;;;;;;;21.55;11.65;;;;;;;11.25;84.50;101652.97;5008446;28;20048;-65
2022/05/12 05:54:36;;;;;;;20.05;12.73;;;;;;;11.43;84.74;101670.66;5009186;28;20364;-62
2022/05/12 05:57:03;;;;;;;22.42;12.10;;;;;;;11.47;84.93;101673.03;5007811;28;20108;-62
2022/05/12 05:59:28;;;;;;;21.52;12.65;;;;;;;11.47;84.82;101679.06;5004678;28;20038;-62
2022/05/12 06:01:54;;;;;;;20.05;12.02;;;;;;;11.62;84.03;101683.16;5007651;28;20036;-64
2022/05/12 06:04:19;;;;;;;21.15;12.93;;;;;;;11.62;83.42;101683.16;4989483;28;20030;-66
2022/05/12 06:06:44;;;;;;;20.90;13.02;;;;;;;11.79;82.88;101688.91;5005245;28;20041;-63
2022/05/12 06:09:12;;;;;;;19.67;12.48;;;;;;;11.87;83.74;101696.97;5008062;28;20106;-62
2022/05/12 06:11:38;;;;;;;22.48;12.80;;;;;;;11.89;84.24;101702.91;4991516;28;20041;-62
2022/05/12 06:14:04;;;;;;;17.75;12.50;;;;;;;11.97;84.19;101708.38;4989240;28;20537;-62
2022/05/12 06:16:29;;;;;;;21.63;12.80;;;;;;;12.08;83.69;101705.00;4999762;28;20022;-63
2022/05/12 06:18:54;;;;;;;19.13;12.35;;;;;;;12.13;82.85;101702.88;5008651;28;20357;-63
2022/05/12 06:21:20;;;;;;;16.52;11.80;;;;;;;12.21;82.78;101716.13;5007297;28;20461;-62
2022/05/12 06:23:46;;;;;;;20.48;11.93;;;;;;;12.26;83.10;101713.19;5007310;28;20042;-62
2022/05/12 06:26:14;;;;;;;17.98;11.25;;;;;;;12.34;81.51;101718.69;4993360;28;20030;-63
2022/05/12 06:28:47;;;;;;;19.08;11.48;;;;;;;12.45;82.17;101734.31;4989140;28;20034;-62
2022/05/12 06:31:24;;;;;;;15.48;10.45;;;;;;;12.57;80.58;101728.19;4988636;28;20140;-62
2022/05/12 06:33:50;;;;;;;16.85;10.57;;;;;;;12.71;81.21;101724.50;5005556;28;20060;-62
2022/05/12 06:36:15;;;;;;;17.05;10.00;;;;;;;12.75;80.59;101725.94;4999585;28;20412;-62
2022/05/12 06:38:40;;;;;;;19.08;9.65;;;;;;;12.85;80.30;101726.09;5007124;28;20466;-62
2022/05/12 06:41:06;;;;;;;15.05;9.45;;;;;;;12.68;78.93;101725.59;5007731;28;20034;-62
2022/05/12 06:43:32;;;;;;;16.52;9.75;;;;;;;12.90;78.46;101735.19;4990145;28;20063;-62
2022/05/12 06:45:57;;;;;;;14.05;9.73;;;;;;;12.99;78.73;101744.06;5008103;28;20034;-65
2022/05/12 06:48:24;;;;;;;14.30;9.50;;;;;;;13.07;78.50;101746.88;5006929;28;20423;-62
2022/05/12 06:50:49;;;;;;;16.38;9.30;;;;;;;13.12;77.28;101744.75;5005432;28;20045;-61
2022/05/12 06:53:15;;;;;;;17.67;10.05;;;;;;;13.05;77.46;101738.38;5007009;28;20347;-64
2022/05/12 06:55:41;;;;;;;16.85;9.00;;;;;;;13.11;77.07;101748.31;5006379;28;20034;-62
2022/05/12 06:58:07;;;;;;;14.27;9.07;;;;;;;13.19;76.90;101751.19;4988086;28;20022;-66
2022/05/12 07:00:32;;;;;;;16.88;9.63;;;;;;;13.22;77.23;101745.75;4988138;28;20034;-62
2022/05/12 07:02:58;;;;;;;15.60;9.13;;;;;;;13.35;76.87;101750.81;4987995;28;20026;-62
2022/05/12 07:05:26;;;;;;;14.30;9.38;;;;;;;13.42;76.93;101761.56;5000879;28;20351;-63
2022/05/12 07:07:53;;;;;;;14.82;9.73;;;;;;;13.53;76.75;101766.78;5007363;28;20406;-62
2022/05/12 07:10:21;;;;;;;14.13;8.68;;;;;;;13.76;75.26;101754.53;5007011;28;20021;-62
2022/05/12 07:12:47;;;;;;;14.75;9.13;;;;;;;13.76;75.05;101767.56;5007526;28;20525;-62
2022/05/12 07:15:13;;;;;;;15.07;8.57;;;;;;;13.68;73.93;101762.97;5003295;28;20034;-65
2022/05/12 07:17:43;;;;;;;15.38;8.50;;;;;;;13.73;74.65;101760.81;5005611;28;20117;-63
2022/05/12 07:28:22;;;;;;;13.00;7.70;;;;;;;14.03;72.20;101773.16;4992547;28;20171;-62
2022/05/12 07:31:02;;;;;;;13.52;8.00;;;;;;;14.11;71.60;101772.56;5006603;28;20022;-62
2022/05/12 07:33:34;;;;;;;13.80;8.68;;;;;;;14.14;72.22;101790.56;4988778;28;20411;-62
2022/05/12 07:36:05;;;;;;;13.80;7.40;;;;;;;14.28;71.13;101787.66;5006474;28;20042;-62
2022/05/12 07:38:31;;;;;;;12.13;7.32;;;;;;;14.28;71.26;101789.44;5006291;28;20061;-62
2022/05/12 07:40:56;;;;;;;13.82;7.90;;;;;;;14.37;71.31;101795.69;5006680;28;20481;-66
2022/05/12 07:43:22;;;;;;;12.65;7.68;;;;;;;14.39;70.37;101788.53;5000586;28;20029;-62
2022/05/12 07:45:48;;;;;;;12.82;7.78;;;;;;;14.53;70.62;101796.09;4990187;28;20066;-65
2022/05/12 07:48:14;;;;;;;14.13;7.00;;;;;;;14.64;69.59;101793.44;4995509;28;20030;-62
2022/05/12 07:50:40;;;;;;;12.93;7.70;;;;;;;14.53;69.23;101777.84;5001744;28;20045;-62
2022/05/12 07:53:06;;;;;;;14.38;7.80;;;;;;;14.63;70.77;101783.13;5005385;28;20034;-62
2022/05/12 07:55:32;;;;;;;10.50;6.95;;;;;;;14.84;69.40;101792.56;5006262;28;20064;-62
2022/05/12 07:57:58;;;;;;;12.65;6.03;;;;;;;15.03;66.64;101797.09;5006276;28;20022;-62
2022/05/12 08:00:24;;;;;;;12.68;5.68;;;;;;;15.14;66.95;101793.56;4998187;28;20030;-62
2022/05/12 08:02:50;;;;;;;10.73;5.25;;;;;;;15.26;65.62;101792.50;4992940;28;20477;-65
2022/05/12 08:05:15;;;;;;;10.40;5.40;;;;;;;15.30;65.45;101809.56;4994072;28;20167;-62
2022/05/12 08:07:42;;;;;;;10.43;4.90;;;;;;;15.45;63.99;101796.16;4999000;28;20029;-63
2022/05/12 08:10:07;;;;;;;9.63;4.45;;;;;;;15.52;62.85;101802.50;5005616;28;20034;-65
2022/05/12 08:12:33;;;;;;;9.00;4.78;;;;;;;15.64;63.45;101804.06;5004895;28;20038;-62
2022/05/12 08:14:59;;;;;;;10.88;4.45;;;;;;;15.66;62.42;101808.22;5005043;28;20034;-64
2022/05/12 08:17:24;;;;;;;8.23;3.83;;;;;;;15.73;61.59;101803.28;5005909;28;20033;-62
2022/05/12 08:19:49;;;;;;;9.52;4.15;;;;;;;15.82;60.19;101812.09;5005996;28;20104;-67
2022/05/12 08:22:15;;;;;;;10.57;4.30;;;;;;;15.89;59.70;101806.19;5004577;28;20489;-63
2022/05/12 08:24:40;;;;;;;8.55;3.85;;;;;;;15.83;58.67;101809.34;5003540;28;20389;-64
2022/05/12 08:27:06;;;;;;;8.05;3.85;;;;;;;15.92;58.29;101813.75;5004688;28;20044;-63
2022/05/12 08:29:31;;;;;;;7.70;3.50;;;;;;;16.03;58.76;101809.38;5005346;28;20026;-61
2022/05/12 08:31:56;;;;;;;8.80;3.60;;;;;;;16.10;58.80;101820.94;5006116;28;20441;-65
2022/05/12 08:34:22;;;;;;;8.32;3.55;;;;;;;16.33;58.38;101818.88;5005474;28;20081;-65
2022/05/12 08:36:49;;;;;;;8.45;3.30;;;;;;;16.41;56.98;101809.38;4989008;28;20027;-62
2022/05/12 08:39:16;;;;;;;8.35;3.50;;;;;;;16.44;57.04;101824.78;5005821;28;20025;-62
2022/05/12 08:42:22;;;;;;;8.27;3.28;;;;;;;16.64;59.29;101819.56;5006009;28;20029;-65
2022/05/12 08:44:48;;;;;;;8.02;3.20;;;;;;;16.67;56.95;101814.00;4995736;28;20052;-62
2022/05/12 08:47:18;;;;;;;8.23;3.30;;;;;;;16.64;56.16;101811.69;5002188;28;20021;-62
2022/05/12 08:49:50;;;;;;;7.80;2.80;;;;;;;16.44;54.98;101818.72;5005519;28;20935;-62
2022/05/12 08:52:15;;;;;;;6.35;2.28;;;;;;;16.50;51.33;101818.16;4996541;28;20121;-63
2022/05/12 08:54:47;;;;;;;6.22;2.42;;;;;;;16.60;54.00;101820.78;5004456;28;20563;-62
2022/05/12 08:57:36;;;;;;;7.97;2.97;;;;;;;16.77;55.69;101820.09;5005111;28;20057;-64
2022/05/12 09:00:07;;;;;;;10.50;2.63;;;;;;;16.69;52.39;101833.88;5006050;28;20042;-63
2022/05/12 09:02:38;;;;;;;6.40;2.22;;;;;;;16.70;53.54;101829.47;5005721;28;20030;-68
2022/05/12 09:05:07;;;;;;;5.70;2.38;;;;;;;16.56;51.50;101832.50;5005793;28;20037;-63
2022/05/12 09:07:49;;;;;;;6.95;1.85;;;;;;;16.61;51.47;101831.13;5005250;28;20378;-65
2022/05/12 09:10:48;;;;;;;6.25;2.17;;;;;;;16.78;53.28;101831.41;5005173;28;20466;-62
2022/05/12 09:13:22;;;;;;;6.18;2.72;;;;;;;16.77;52.76;101825.34;4928087;29;20044;-62
2022/05/12 09:16:25;;;;;;;6.45;2.45;;;;;;;16.73;52.32;101834.44;4929065;29;20074;-63
2022/05/12 09:18:53;;;;;;;9.27;2.50;;;;;;;16.61;50.69;101830.28;4929054;29;20043;-62
2022/05/12 09:21:29;;;;;;;4.87;1.60;;;;;;;16.51;49.43;101835.53;4927966;29;20027;-62
2022/05/12 09:23:54;;;;;;;4.65;1.80;;;;;;;16.54;49.93;101840.50;4928889;29;20452;-62
2022/05/12 09:26:37;;;;;;;5.18;2.10;;;;;;;16.62;50.65;101842.41;4928083;29;20540;-62
2022/05/12 09:29:27;;;;;;;6.22;2.28;;;;;;;16.84;51.53;101833.47;4927527;29;20629;-62
2022/05/12 09:32:15;;;;;;;6.43;2.50;;;;;;;16.96;51.44;101834.94;4926461;29;20070;-63
2022/05/12 09:34:46;;;;;;;7.95;2.10;;;;;;;17.08;49.95;101843.47;4927206;29;20063;-65
2022/05/12 09:37:18;;;;;;;8.82;2.22;;;;;;;17.03;50.80;101840.44;4923469;29;20162;-62
2022/05/12 09:39:52;;;;;;;8.40;2.35;;;;;;;17.07;50.42;101836.56;4927461;29;20043;-64
2022/05/12 09:42:27;;;;;;;8.68;2.35;;;;;;;17.24;50.86;101835.81;4928227;29;20032;-64
2022/05/12 09:44:59;;;;;;;6.28;2.30;;;;;;;17.26;50.32;101841.72;4928882;29;20110;-62
2022/05/12 09:47:26;;;;;;;4.93;2.17;;;;;;;17.34;48.80;101828.75;4928211;29;20031;-63
2022/05/12 09:50:20;;;;;;;5.38;2.17;;;;;;;17.42;49.20;101823.59;4960191;28;20095;-63
2022/05/12 09:53:08;;;;;;;4.03;2.00;;;;;;;17.59;49.71;101826.41;5008563;28;20123;-63
2022/05/12 09:55:39;;;;;;;5.15;1.90;;;;;;;17.66;49.30;101832.72;5008741;28;20092;-63
2022/05/12 09:58:13;;;;;;;4.53;1.88;;;;;;;17.86;48.41;101829.03;5007833;28;20492;-62
2022/05/12 10:00:40;;;;;;;4.82;1.83;;;;;;;17.98;46.79;101827.84;5008135;28;20057;-62
2022/05/12 10:09:05;;;;;;;6.22;1.85;;;;;;;17.95;43.75;101828.16;5008542;28;20108;-64
2022/05/12 10:11:42;;;;;;;4.40;1.80;;;;;;;18.02;45.93;101826.59;5008140;28;20022;-62
2022/05/12 10:14:17;;;;;;;5.38;1.70;;;;;;;17.48;43.25;101832.66;5007908;28;20022;-68
2022/05/12 10:16:43;;;;;;;4.80;1.63;;;;;;;17.65;46.40;101841.56;5007986;28;20036;-65
2022/05/12 10:19:15;;;;;;;5.13;1.92;;;;;;;17.66;44.46;101825.69;4990600;28;20030;-68
2022/05/12 10:21:47;;;;;;;5.30;2.10;;;;;;;17.51;44.74;101841.09;5005057;28;20116;-64
2022/05/12 10:24:16;;;;;;;4.10;1.60;;;;;;;17.69;47.43;101835.06;5007590;28;20493;-63
2022/05/12 10:26:51;;;;;;;5.25;1.75;;;;;;;17.78;44.25;101834.22;4989730;28;20037;-62
2022/05/12 10:29:57;;;;;;;6.13;1.88;;;;;;;18.03;45.78;101835.28;5004934;28;20068;-66
2022/05/12 10:32:44;;;;;;;6.10;1.70;;;;;;;17.96;45.28;101840.31;4926915;29;20071;-67
2022/05/12 10:35:47;;;;;;;6.82;1.95;;;;;;;18.04;43.56;101843.00;4927094;29;20070;-63
2022/05/12 10:38:15;;;;;;;5.68;2.03;;;;;;;17.86;41.97;101839.53;4924269;29;20046;-62
2022/05/12 10:40:53;;;;;;;4.68;1.88;;;;;;;18.19;43.84;101834.63;4927488;29;20130;-62
2022/05/12 10:43:36;;;;;;;5.80;1.70;;;;;;;18.25;44.05;101831.38;4926775;29;20031;-65
2022/05/12 10:46:32;;;;;;;4.10;1.50;;;;;;;18.30;44.61;101832.59;4926675;29;20050;-62
2022/05/12 10:49:02;;;;;;;5.72;1.70;;;;;;;18.14;44.13;101836.88;4926548;29;20038;-63
2022/05/12 10:51:49;;;;;;;5.07;1.70;;;;;;;18.40;45.07;101831.66;4923132;29;20159;-63
2022/05/12 10:54:33;;;;;;;5.22;1.73;;;;;;;18.38;45.43;101834.44;4922702;29;20046;-65
2022/05/12 10:57:29;;;;;;;4.18;1.40;;;;;;;18.48;44.34;101829.94;4927158;29;20170;-66
2022/05/12 11:00:08;;;;;;;3.97;1.65;;;;;;;18.55;43.33;101830.97;4927231;29;20059;-63
2022/05/12 11:02:47;;;;;;;3.85;1.60;;;;;;;18.45;42.70;101827.59;4926457;29;20448;-66
2022/05/12 11:05:21;;;;;;;4.78;1.42;;;;;;;18.27;41.92;101824.19;4929666;28;20096;-62
2022/05/12 11:08:28;;;;;;;3.53;1.42;;;;;;;18.33;41.01;101817.50;4987548;28;20058;-64
2022/05/12 11:10:59;;;;;;;4.40;1.80;;;;;;;18.09;40.42;101823.34;4986934;28;20056;-63
2022/05/12 11:13:32;;;;;;;5.10;1.40;;;;;;;18.23;42.20;101836.78;5004113;28;20049;-62
2022/05/12 11:16:21;;;;;;;4.65;1.40;;;;;;;18.39;41.64;101820.34;5006445;28;20410;-62
2022/05/12 11:19:19;;;;;;;4.35;1.40;;;;;;;18.20;40.92;101817.88;5006658;28;20033;-61
2022/05/12 11:21:57;;;;;;;4.63;1.55;;;;;;;18.33;42.61;101820.94;5000999;28;20124;-66
2022/05/12 11:24:34;;;;;;;3.53;1.40;;;;;;;18.28;40.75;101818.75;5006473;28;20030;-65
2022/05/12 11:27:15;;;;;;;6.05;1.85;;;;;;;18.38;41.12;101813.44;5007244;28;20045;-62
2022/05/12 11:30:06;;;;;;;4.65;1.40;;;;;;;18.55;39.82;101830.16;5006380;28;20088;-66
2022/05/12 11:32:51;;;;;;;3.97;1.45;;;;;;;18.71;43.18;101824.22;5005871;28;20037;-63
2022/05/12 11:35:24;;;;;;;3.85;1.45;;;;;;;18.61;41.09;101823.47;5000103;28;20064;-62
2022/05/12 11:37:50;;;;;;;3.83;1.50;;;;;;;18.79;41.01;101816.38;4987382;28;20130;-62
2022/05/12 11:40:44;;;;;;;3.70;1.40;;;;;;;18.83;41.39;101818.56;4986512;28;20064;-66
2022/05/12 11:46:31;;;;;;;4.45;1.45;;;;;;;19.07;41.11;101809.97;5006372;28;20168;-62
2022/05/12 11:49:10;;;;;;;3.97;1.60;;;;;;;19.13;40.67;101818.22;5006556;28;20034;-65
2022/05/12 11:51:45;;;;;;;4.68;1.55;;;;;;;19.27;41.01;101817.66;5006415;28;20065;-62
2022/05/12 11:54:24;;;;;;;3.60;1.60;;;;;;;19.36;39.60;101819.31;5005557;28;20037;-62
2022/05/12 11:56:57;;;;;;;4.15;1.55;;;;;;;19.24;40.36;101820.56;4988625;28;20527;-63